Time;durP1;ratioP1;P1;durP2;ratioP2;P2;SDS_P1;SDS_P2;PMS_P1;PMS_P2;Temp;Humidity;BMP_temperature;BMP_pressure;BME280_temperature;BME280_humidity;BME280_pressure;Samples;Min_cycle;Max_cycle;Signal;HPM_P1;HPM_P2
2021/04/03 00:02:18;;;;;;;6.03;5.10;;;;;;;;;;5117857;28;20232;-74
2021/04/03 00:04:45;;;;;;;5.33;4.83;;;;;;;;;;5117678;28;20303;-74
2021/04/03 00:07:12;;;;;;;6.93;4.97;;;;;;;;;;5117768;28;20258;-74
2021/04/03 00:09:39;;;;;;;8.47;5.50;;;;;;;;;;5117990;28;20287;-74
2021/04/03 00:12:07;;;;;;;11.17;5.37;;;;;;;;;;5123898;28;20228;-74
2021/04/03 00:14:34;;;;;;;8.10;5.17;;;;;;;;;;5120812;28;20255;-74
2021/04/03 00:17:01;;;;;;;7.90;4.63;;;;;;;;;;5121612;28;21088;-74
2021/04/03 00:19:29;;;;;;;6.93;4.80;;;;;;;;;;5121854;28;20204;-74
2021/04/03 00:21:56;;;;;;;8.23;5.03;;;;;;;;;;5121527;28;20228;-74
2021/04/03 00:24:23;;;;;;;6.87;5.63;;;;;;;;;;5121899;28;20256;-74
2021/04/03 00:26:50;;;;;;;7.40;5.60;;;;;;;;;;5121781;28;20238;-74
2021/04/03 00:29:17;;;;;;;8.27;4.80;;;;;;;;;;5121882;28;20236;-74
2021/04/03 00:31:44;;;;;;;7.00;5.10;;;;;;;;;;5121619;28;20200;-74
2021/04/03 00:34:11;;;;;;;7.10;5.23;;;;;;;;;;5112998;28;20264;-74
2021/04/03 00:36:39;;;;;;;7.50;5.23;;;;;;;;;;5121090;28;20739;-75
2021/04/03 00:39:06;;;;;;;6.03;5.03;;;;;;;;;;5121695;28;20606;-74
2021/04/03 00:41:33;;;;;;;8.47;5.77;;;;;;;;;;5121248;28;20377;-75
2021/04/03 00:44:00;;;;;;;5.37;4.87;;;;;;;;;;5120565;28;20269;-75
2021/04/03 00:46:27;;;;;;;5.67;4.80;;;;;;;;;;5121248;28;20609;-75
2021/04/03 00:48:54;;;;;;;7.13;5.40;;;;;;;;;;5121372;28;20288;-75
2021/04/03 00:51:21;;;;;;;5.60;4.77;;;;;;;;;;5121151;28;20292;-75
2021/04/03 00:53:49;;;;;;;5.43;4.90;;;;;;;;;;5121246;28;20311;-75
2021/04/03 00:56:16;;;;;;;6.63;4.23;;;;;;;;;;5121121;28;20229;-75
2021/04/03 00:58:43;;;;;;;7.87;5.20;;;;;;;;;;5121211;28;20284;-75
2021/04/03 01:01:10;;;;;;;6.30;4.60;;;;;;;;;;5121236;28;20273;-75
2021/04/03 01:03:37;;;;;;;8.07;5.10;;;;;;;;;;5121154;28;20201;-75
2021/04/03 01:06:05;;;;;;;5.33;4.67;;;;;;;;;;5120636;27;20315;-75
2021/04/03 01:08:32;;;;;;;6.30;4.73;;;;;;;;;;5121025;28;20209;-75
2021/04/03 01:11:00;;;;;;;4.90;4.00;;;;;;;;;;5120739;28;20334;-76
2021/04/03 01:13:33;;;;;;;5.33;4.83;;;;;;;;;;5124775;27;20259;-75
2021/04/03 01:16:04;;;;;;;7.67;4.93;;;;;;;;;;5120558;28;20250;-75
2021/04/03 01:18:36;;;;;;;7.13;4.57;;;;;;;;;;5120781;28;20208;-75
2021/04/03 01:21:06;;;;;;;6.60;4.73;;;;;;;;;;5120284;28;20280;-75
2021/04/03 01:23:40;;;;;;;6.47;5.00;;;;;;;;;;5135323;27;20264;-75
2021/04/03 01:26:21;;;;;;;5.27;4.77;;;;;;;;;;5139908;27;20311;-74
2021/04/03 01:29:02;;;;;;;6.00;4.40;;;;;;;;;;5141224;27;20222;-75
2021/04/03 01:31:30;;;;;;;7.87;5.07;;;;;;;;;;5141197;27;20248;-75
2021/04/03 01:33:59;;;;;;;6.90;5.13;;;;;;;;;;5122432;27;20282;-75
2021/04/03 01:36:26;;;;;;;13.77;4.93;;;;;;;;;;5120292;28;20280;-76
2021/04/03 01:38:55;;;;;;;7.50;4.63;;;;;;;;;;5120380;28;20688;-75
2021/04/03 01:41:23;;;;;;;5.07;4.37;;;;;;;;;;5120225;28;20273;-76
2021/04/03 01:43:51;;;;;;;7.87;4.57;;;;;;;;;;5119933;28;20280;-76
2021/04/03 01:46:18;;;;;;;7.73;4.30;;;;;;;;;;5125983;27;20815;-75
2021/04/03 01:48:47;;;;;;;5.27;4.77;;;;;;;;;;5119958;28;20639;-75
2021/04/03 01:51:16;;;;;;;8.57;4.87;;;;;;;;;;5119690;28;20736;-75
2021/04/03 01:53:43;;;;;;;5.60;4.80;;;;;;;;;;5119862;28;20659;-76
2021/04/03 01:56:11;;;;;;;6.23;4.60;;;;;;;;;;5119945;27;20267;-76
2021/04/03 01:58:39;;;;;;;6.23;4.43;;;;;;;;;;5119988;28;20632;-75
2021/04/03 02:01:06;;;;;;;7.37;4.93;;;;;;;;;;5120048;28;20268;-77
2021/04/03 02:03:34;;;;;;;6.03;4.60;;;;;;;;;;5120103;28;20207;-77
2021/04/03 02:06:03;;;;;;;6.93;4.87;;;;;;;;;;5120076;27;20929;-76
2021/04/03 02:08:30;;;;;;;5.87;5.00;;;;;;;;;;5140217;27;20291;-76
2021/04/03 02:10:58;;;;;;;7.17;4.83;;;;;;;;;;5132043;27;20285;-76
2021/04/03 02:13:25;;;;;;;6.77;5.33;;;;;;;;;;5119412;28;20590;-76
2021/04/03 02:15:53;;;;;;;6.00;5.37;;;;;;;;;;5119894;28;20225;-77
2021/04/03 02:18:22;;;;;;;11.83;5.83;;;;;;;;;;5119887;28;20232;-76
2021/04/03 02:20:50;;;;;;;9.13;5.13;;;;;;;;;;5120036;28;20207;-76
2021/04/03 02:23:18;;;;;;;6.57;5.33;;;;;;;;;;5120323;28;20266;-76
2021/04/03 02:25:45;;;;;;;6.27;5.43;;;;;;;;;;5119584;28;20256;-75
2021/04/03 02:28:11;;;;;;;8.30;5.30;;;;;;;;;;5119621;28;20292;-75
2021/04/03 02:30:39;;;;;;;7.43;4.60;;;;;;;;;;5119419;28;20656;-75
2021/04/03 02:33:06;;;;;;;5.80;5.23;;;;;;;;;;5118996;28;20297;-75
2021/04/03 02:35:33;;;;;;;6.83;5.17;;;;;;;;;;5118392;28;20688;-76
2021/04/03 02:38:02;;;;;;;6.23;5.20;;;;;;;;;;5118808;28;20664;-75
2021/04/03 02:40:31;;;;;;;10.57;5.70;;;;;;;;;;5119160;28;20208;-75
2021/04/03 02:43:01;;;;;;;8.63;5.87;;;;;;;;;;5118798;28;20264;-75
2021/04/03 02:45:31;;;;;;;7.77;5.97;;;;;;;;;;5118717;28;20311;-74
2021/04/03 02:48:00;;;;;;;10.27;6.33;;;;;;;;;;5118926;28;20638;-75
2021/04/03 02:50:29;;;;;;;10.27;6.23;;;;;;;;;;5118816;28;20266;-75
2021/04/03 02:52:57;;;;;;;7.73;5.53;;;;;;;;;;5118561;28;20256;-74
2021/04/03 02:55:28;;;;;;;8.53;5.87;;;;;;;;;;5118850;28;20638;-74
2021/04/03 02:57:57;;;;;;;10.03;5.90;;;;;;;;;;5118863;28;20205;-74
2021/04/03 03:00:25;;;;;;;9.60;5.87;;;;;;;;;;5118733;28;20563;-74
2021/04/03 03:02:52;;;;;;;8.27;6.33;;;;;;;;;;5118692;28;20259;-74
2021/04/03 03:05:19;;;;;;;9.47;6.37;;;;;;;;;;5117331;28;20252;-75
2021/04/03 03:07:48;;;;;;;12.53;6.17;;;;;;;;;;5124241;27;20563;-74
2021/04/03 03:10:15;;;;;;;7.57;5.97;;;;;;;;;;5131525;27;20286;-74
2021/04/03 03:12:43;;;;;;;8.43;5.93;;;;;;;;;;5118281;28;20259;-74
2021/04/03 03:15:13;;;;;;;9.30;6.87;;;;;;;;;;5118493;28;20267;-75
2021/04/03 03:17:42;;;;;;;8.37;6.20;;;;;;;;;;5118347;28;20204;-74
2021/04/03 03:20:10;;;;;;;9.03;6.17;;;;;;;;;;5118528;28;20210;-75
2021/04/03 03:22:38;;;;;;;7.00;6.17;;;;;;;;;;5117817;28;20235;-74
2021/04/03 03:25:06;;;;;;;7.70;5.67;;;;;;;;;;5118443;28;20259;-75
2021/04/03 03:27:34;;;;;;;9.13;6.83;;;;;;;;;;5118194;28;20236;-74
2021/04/03 03:30:02;;;;;;;9.60;7.00;;;;;;;;;;5118209;28;20284;-74
2021/04/03 03:32:30;;;;;;;9.67;6.43;;;;;;;;;;5112779;28;20279;-74
2021/04/03 03:34:57;;;;;;;11.67;7.07;;;;;;;;;;5115558;28;20221;-74
2021/04/03 03:37:25;;;;;;;10.53;6.90;;;;;;;;;;5117646;28;20201;-74
2021/04/03 03:39:52;;;;;;;15.77;7.17;;;;;;;;;;5118182;28;20380;-75
2021/04/03 03:42:19;;;;;;;8.57;6.33;;;;;;;;;;5117923;28;20244;-75
2021/04/03 03:44:47;;;;;;;14.20;7.50;;;;;;;;;;5118228;28;20311;-74
2021/04/03 03:47:14;;;;;;;8.40;6.93;;;;;;;;;;5117978;28;20205;-74
2021/04/03 03:49:41;;;;;;;13.13;7.13;;;;;;;;;;5118013;28;20296;-75
2021/04/03 03:52:08;;;;;;;11.50;7.17;;;;;;;;;;5117581;28;20240;-75
2021/04/03 03:54:36;;;;;;;12.93;6.97;;;;;;;;;;5118099;28;20229;-74
2021/04/03 03:57:03;;;;;;;10.40;7.40;;;;;;;;;;5117915;28;20227;-74
2021/04/03 03:59:30;;;;;;;14.20;7.60;;;;;;;;;;5118115;28;20288;-74
2021/04/03 04:01:57;;;;;;;11.73;7.47;;;;;;;;;;5117951;28;20228;-74
2021/04/03 04:04:24;;;;;;;14.67;7.80;;;;;;;;;;5117694;28;20244;-74
2021/04/03 04:06:53;;;;;;;11.63;7.63;;;;;;;;;;5123471;28;20562;-74
2021/04/03 04:09:20;;;;;;;14.03;8.10;;;;;;;;;;5124714;28;20279;-74
2021/04/03 04:11:47;;;;;;;16.70;7.63;;;;;;;;;;5123037;28;20219;-74
2021/04/03 04:14:14;;;;;;;12.53;8.00;;;;;;;;;;5117663;28;20693;-75
2021/04/03 04:16:41;;;;;;;13.50;7.83;;;;;;;;;;5117873;28;20272;-74
2021/04/03 04:19:09;;;;;;;14.67;8.47;;;;;;;;;;5117732;28;20295;-74
2021/04/03 04:21:36;;;;;;;13.83;7.70;;;;;;;;;;5117411;28;20642;-74
2021/04/03 04:24:04;;;;;;;16.30;8.43;;;;;;;;;;5117498;28;20323;-74
2021/04/03 04:26:31;;;;;;;12.40;8.83;;;;;;;;;;5117797;28;20290;-74
2021/04/03 04:28:58;;;;;;;13.50;7.67;;;;;;;;;;5117925;28;20205;-74
2021/04/03 04:31:26;;;;;;;15.37;8.60;;;;;;;;;;5117573;28;20252;-74
2021/04/03 04:33:53;;;;;;;14.30;8.20;;;;;;;;;;5108195;28;20263;-74
2021/04/03 04:36:20;;;;;;;10.13;7.33;;;;;;;;;;5117401;28;20255;-74
2021/04/03 04:38:47;;;;;;;12.60;7.60;;;;;;;;;;5117414;28;20212;-74
2021/04/03 04:41:15;;;;;;;14.00;8.70;;;;;;;;;;5117452;28;20213;-74
2021/04/03 04:43:42;;;;;;;12.10;8.23;;;;;;;;;;5117682;28;20288;-74
2021/04/03 04:46:09;;;;;;;15.30;8.27;;;;;;;;;;5117356;28;20722;-74
2021/04/03 04:48:36;;;;;;;10.43;7.07;;;;;;;;;;5117677;28;20208;-74
2021/04/03 04:51:03;;;;;;;11.63;6.90;;;;;;;;;;5117455;28;20296;-74
2021/04/03 04:53:30;;;;;;;13.87;7.70;;;;;;;;;;5117555;28;20256;-74
2021/04/03 04:55:58;;;;;;;12.87;8.13;;;;;;;;;;5117371;28;20274;-74
2021/04/03 04:58:26;;;;;;;11.77;7.00;;;;;;;;;;5117188;28;20296;-74
2021/04/03 05:00:53;;;;;;;13.47;7.77;;;;;;;;;;5119618;28;20654;-74
2021/04/03 05:03:19;;;;;;;10.73;7.10;;;;;;;;;;5120979;28;20264;-74
2021/04/03 05:05:47;;;;;;;11.17;6.80;;;;;;;;;;5121119;27;20598;-74
2021/04/03 05:08:14;;;;;;;13.13;7.47;;;;;;;;;;5141344;27;20236;-74
2021/04/03 05:10:41;;;;;;;13.97;8.20;;;;;;;;;;5135689;27;20229;-74
2021/04/03 05:13:08;;;;;;;12.43;8.17;;;;;;;;;;5119944;28;20223;-74
2021/04/03 05:15:36;;;;;;;13.37;7.63;;;;;;;;;;5123147;27;20763;-74
2021/04/03 05:18:03;;;;;;;11.00;7.23;;;;;;;;;;5119931;28;20288;-74
2021/04/03 05:20:30;;;;;;;10.80;7.93;;;;;;;;;;5121653;27;20262;-75
2021/04/03 05:22:57;;;;;;;10.17;7.20;;;;;;;;;;5116322;28;20259;-74
2021/04/03 05:25:24;;;;;;;11.90;6.93;;;;;;;;;;5120067;28;20259;-74
2021/04/03 05:27:51;;;;;;;15.13;7.57;;;;;;;;;;5119048;28;20675;-74
2021/04/03 05:30:19;;;;;;;11.93;7.43;;;;;;;;;;5120363;27;20235;-75
2021/04/03 05:32:47;;;;;;;12.33;7.80;;;;;;;;;;5118623;28;20205;-74
2021/04/03 05:35:14;;;;;;;14.63;7.23;;;;;;;;;;5117833;28;20312;-75
2021/04/03 05:37:42;;;;;;;12.20;7.23;;;;;;;;;;5120470;27;20228;-74
2021/04/03 05:40:10;;;;;;;14.13;7.90;;;;;;;;;;5120310;27;20204;-74
2021/04/03 05:42:38;;;;;;;12.93;7.00;;;;;;;;;;5116703;28;20231;-75
2021/04/03 05:45:06;;;;;;;13.63;8.40;;;;;;;;;;5121030;27;20267;-74
2021/04/03 05:47:33;;;;;;;15.83;7.87;;;;;;;;;;5119220;27;20231;-75
2021/04/03 05:50:02;;;;;;;11.97;7.87;;;;;;;;;;5119867;27;20240;-75
2021/04/03 05:52:29;;;;;;;12.20;7.87;;;;;;;;;;5118424;28;20219;-75
2021/04/03 05:54:56;;;;;;;14.97;8.37;;;;;;;;;;5117943;27;20252;-75
2021/04/03 05:57:25;;;;;;;12.80;7.27;;;;;;;;;;5121630;27;20246;-75
2021/04/03 05:59:52;;;;;;;9.27;6.90;;;;;;;;;;5118871;27;20225;-75
2021/04/03 06:02:19;;;;;;;16.00;8.73;;;;;;;;;;5119964;27;20200;-75
2021/04/03 06:04:46;;;;;;;17.27;8.10;;;;;;;;;;5117998;28;20213;-75
2021/04/03 06:07:14;;;;;;;11.97;7.87;;;;;;;;;;5119005;27;20228;-74
2021/04/03 06:09:41;;;;;;;14.50;8.43;;;;;;;;;;5118967;28;20268;-74
2021/04/03 06:12:09;;;;;;;11.97;8.53;;;;;;;;;;5120058;27;20251;-75
2021/04/03 06:14:36;;;;;;;12.40;7.33;;;;;;;;;;5129988;27;20263;-75
2021/04/03 06:17:03;;;;;;;17.40;8.70;;;;;;;;;;5139995;27;20613;-75
2021/04/03 06:19:31;;;;;;;16.87;8.53;;;;;;;;;;5140107;27;20287;-74
2021/04/03 06:22:00;;;;;;;12.67;7.80;;;;;;;;;;5139381;27;20211;-73
2021/04/03 06:24:28;;;;;;;14.43;8.53;;;;;;;;;;5140178;27;20221;-75
2021/04/03 06:26:57;;;;;;;12.77;8.43;;;;;;;;;;5139752;27;20296;-75
2021/04/03 06:29:26;;;;;;;14.97;8.27;;;;;;;;;;5140123;27;20242;-75
2021/04/03 06:31:54;;;;;;;13.97;8.13;;;;;;;;;;5138907;27;20639;-75
2021/04/03 06:34:28;;;;;;;14.43;8.87;;;;;;;;;;5118430;28;20682;-74
2021/04/03 06:36:55;;;;;;;15.00;8.20;;;;;;;;;;5119037;28;20205;-75
2021/04/03 06:39:22;;;;;;;16.57;9.20;;;;;;;;;;5119156;28;20239;-75
2021/04/03 06:41:51;;;;;;;17.30;9.07;;;;;;;;;;5119178;28;20247;-74
2021/04/03 06:44:18;;;;;;;18.30;8.77;;;;;;;;;;5119029;28;20307;-75
2021/04/03 06:46:46;;;;;;;16.80;9.57;;;;;;;;;;5109134;28;20604;-75
2021/04/03 06:49:13;;;;;;;17.97;8.97;;;;;;;;;;5103792;28;20645;-73
2021/04/03 06:51:40;;;;;;;15.37;9.60;;;;;;;;;;5105231;28;20208;-70
2021/04/03 06:54:08;;;;;;;13.97;8.80;;;;;;;;;;5101514;28;20228;-73
2021/04/03 06:56:35;;;;;;;14.63;9.70;;;;;;;;;;5118772;28;20220;-72
2021/04/03 06:59:04;;;;;;;15.37;9.67;;;;;;;;;;5118888;28;20292;-72
2021/04/03 07:01:36;;;;;;;15.00;9.53;;;;;;;;;;5118683;28;20765;-72
2021/04/03 07:04:09;;;;;;;18.70;9.50;;;;;;;;;;5118684;28;20284;-72
2021/04/03 07:06:36;;;;;;;18.07;9.70;;;;;;;;;;5118195;28;20684;-72
2021/04/03 07:09:04;;;;;;;14.37;8.67;;;;;;;;;;5118752;28;20219;-73
2021/04/03 07:11:32;;;;;;;14.93;8.97;;;;;;;;;;5124190;27;20235;-73
2021/04/03 07:13:59;;;;;;;14.07;9.27;;;;;;;;;;5129313;27;20222;-71
2021/04/03 07:16:29;;;;;;;13.67;9.60;;;;;;;;;;5105678;28;20740;-73
2021/04/03 07:18:56;;;;;;;16.17;9.43;;;;;;;;;;5105879;28;20730;-72
2021/04/03 07:21:23;;;;;;;16.30;8.73;;;;;;;;;;5104983;28;20240;-72
2021/04/03 07:23:50;;;;;;;18.00;10.07;;;;;;;;;;5117319;28;20296;-72
2021/04/03 07:26:18;;;;;;;15.37;9.97;;;;;;;;;;5118199;28;20244;-72
2021/04/03 07:28:45;;;;;;;13.03;9.83;;;;;;;;;;5118078;28;20288;-72
2021/04/03 07:31:32;;;;;;;17.73;10.73;;;;;;;;;;5118235;28;20283;-72
2021/04/03 07:34:00;;;;;;;20.53;10.87;;;;;;;;;;5117673;28;20250;-72
2021/04/03 07:36:35;;;;;;;17.90;10.27;;;;;;;;;;5118122;28;20280;-71
2021/04/03 07:39:03;;;;;;;17.33;9.93;;;;;;;;;;5118299;28;20200;-72
2021/04/03 07:41:35;;;;;;;17.83;10.70;;;;;;;;;;5117956;28;20256;-72
2021/04/03 07:44:09;;;;;;;19.37;12.60;;;;;;;;;;5118065;28;20292;-72
2021/04/03 07:46:44;;;;;;;15.37;9.97;;;;;;;;;;5112446;28;20211;-73
2021/04/03 07:49:12;;;;;;;18.53;10.50;;;;;;;;;;5110756;28;20232;-73
2021/04/03 07:51:43;;;;;;;18.33;11.30;;;;;;;;;;5117777;28;20240;-72
2021/04/03 07:54:28;;;;;;;19.23;11.03;;;;;;;;;;5118579;28;20316;-73
2021/04/03 07:56:59;;;;;;;19.23;11.37;;;;;;;;;;5117815;28;20261;-73
2021/04/03 07:59:47;;;;;;;18.90;11.03;;;;;;;;;;5117840;28;20243;-73
2021/04/03 08:02:14;;;;;;;20.80;10.43;;;;;;;;;;5118018;28;20208;-74
2021/04/03 08:04:42;;;;;;;22.37;10.97;;;;;;;;;;5117799;28;20661;-72
2021/04/03 08:07:09;;;;;;;19.60;11.33;;;;;;;;;;5117874;28;20292;-72
2021/04/03 08:09:37;;;;;;;23.27;11.53;;;;;;;;;;5118213;28;20312;-70
2021/04/03 08:12:05;;;;;;;16.37;11.57;;;;;;;;;;5117851;28;20236;-74
2021/04/03 08:14:33;;;;;;;17.30;11.13;;;;;;;;;;5117585;28;20255;-74
2021/04/03 08:17:00;;;;;;;22.83;11.63;;;;;;;;;;5117848;28;20204;-74
2021/04/03 08:19:28;;;;;;;19.37;11.33;;;;;;;;;;5118075;28;20205;-74
2021/04/03 08:21:56;;;;;;;20.83;11.40;;;;;;;;;;5117272;28;20240;-73
2021/04/03 08:24:23;;;;;;;19.87;11.13;;;;;;;;;;5117442;28;20404;-74
2021/04/03 08:26:51;;;;;;;17.30;11.73;;;;;;;;;;5117615;28;20299;-74
2021/04/03 08:29:23;;;;;;;18.07;11.60;;;;;;;;;;5117904;28;20236;-74
2021/04/03 08:31:50;;;;;;;21.83;12.20;;;;;;;;;;5117769;28;20216;-74
2021/04/03 08:34:17;;;;;;;23.07;12.77;;;;;;;;;;5118686;28;20696;-74
2021/04/03 08:36:45;;;;;;;22.07;12.50;;;;;;;;;;5121178;28;20211;-74
2021/04/03 08:39:13;;;;;;;19.43;11.97;;;;;;;;;;5116754;28;20260;-74
2021/04/03 08:41:41;;;;;;;19.90;13.30;;;;;;;;;;5110482;28;20641;-73
2021/04/03 08:44:15;;;;;;;19.87;12.40;;;;;;;;;;5108718;28;20280;-73
2021/04/03 08:46:42;;;;;;;22.07;13.00;;;;;;;;;;5111840;28;20244;-75
2021/04/03 08:49:10;;;;;;;21.07;12.07;;;;;;;;;;5109383;28;20208;-75
2021/04/03 08:51:37;;;;;;;21.17;12.07;;;;;;;;;;5111261;28;20287;-75
2021/04/03 08:54:04;;;;;;;20.77;12.07;;;;;;;;;;5115703;28;20311;-75
2021/04/03 08:56:33;;;;;;;19.13;11.57;;;;;;;;;;5121271;28;20363;-74
2021/04/03 08:59:01;;;;;;;18.70;11.80;;;;;;;;;;5121035;27;20205;-75
2021/04/03 09:01:30;;;;;;;19.87;10.90;;;;;;;;;;5121058;28;20243;-75
2021/04/03 09:04:02;;;;;;;17.53;12.00;;;;;;;;;;5120750;28;20633;-75
2021/04/03 09:06:42;;;;;;;16.23;11.93;;;;;;;;;;5120839;28;20275;-75
2021/04/03 09:09:11;;;;;;;21.40;11.23;;;;;;;;;;5120883;28;20211;-75
2021/04/03 09:11:39;;;;;;;20.90;11.67;;;;;;;;;;5120707;28;20270;-75
2021/04/03 09:14:06;;;;;;;17.20;11.60;;;;;;;;;;5120702;28;20700;-75
2021/04/03 09:16:37;;;;;;;16.83;12.17;;;;;;;;;;5120771;28;20237;-74
2021/04/03 09:19:04;;;;;;;21.10;12.77;;;;;;;;;;5120909;28;20258;-75
2021/04/03 09:21:31;;;;;;;20.47;12.07;;;;;;;;;;5120626;28;20292;-75
2021/04/03 09:23:59;;;;;;;19.27;11.83;;;;;;;;;;5120482;28;20682;-75
2021/04/03 09:26:33;;;;;;;19.07;12.03;;;;;;;;;;5120398;28;20292;-75
2021/04/03 09:29:06;;;;;;;16.80;11.90;;;;;;;;;;5121197;28;20205;-75
2021/04/03 09:31:40;;;;;;;16.77;11.27;;;;;;;;;;5120600;28;20236;-75
2021/04/03 09:34:07;;;;;;;20.53;11.97;;;;;;;;;;5120178;27;20232;-75
2021/04/03 09:36:44;;;;;;;23.67;11.53;;;;;;;;;;5120303;28;20283;-75
2021/04/03 09:39:14;;;;;;;22.03;10.50;;;;;;;;;;5120484;28;20288;-75
2021/04/03 09:41:45;;;;;;;17.90;11.63;;;;;;;;;;5120341;28;20284;-75
2021/04/03 09:44:13;;;;;;;22.27;11.37;;;;;;;;;;5120355;28;20284;-75
2021/04/03 09:46:41;;;;;;;17.30;10.80;;;;;;;;;;5119204;28;20254;-75
2021/04/03 09:49:08;;;;;;;22.60;11.13;;;;;;;;;;5120098;28;20236;-75
2021/04/03 09:51:36;;;;;;;20.57;11.90;;;;;;;;;;5119917;28;20287;-74
2021/04/03 09:54:03;;;;;;;16.40;11.10;;;;;;;;;;5119996;28;20253;-75
2021/04/03 09:56:30;;;;;;;17.37;12.30;;;;;;;;;;5119882;28;20287;-74
2021/04/03 09:58:58;;;;;;;19.97;11.30;;;;;;;;;;5119886;27;20228;-75
2021/04/03 10:01:26;;;;;;;17.93;11.63;;;;;;;;;;5120186;28;20234;-74
2021/04/03 10:03:54;;;;;;;17.97;11.60;;;;;;;;;;5119844;28;20197;-74
2021/04/03 10:06:21;;;;;;;16.27;11.30;;;;;;;;;;5119423;28;20672;-74
2021/04/03 10:08:48;;;;;;;15.07;10.83;;;;;;;;;;5119656;28;20312;-75
2021/04/03 10:11:16;;;;;;;17.47;10.97;;;;;;;;;;5119873;28;20287;-74
2021/04/03 10:13:44;;;;;;;14.37;10.60;;;;;;;;;;5119451;28;20312;-74
2021/04/03 10:16:11;;;;;;;18.07;10.43;;;;;;;;;;5119776;28;20256;-75
2021/04/03 10:18:39;;;;;;;18.43;11.03;;;;;;;;;;5119472;28;20205;-74
2021/04/03 10:21:08;;;;;;;16.70;10.53;;;;;;;;;;5119185;28;20232;-74
2021/04/03 10:23:35;;;;;;;19.53;10.73;;;;;;;;;;5115609;28;20289;-74
2021/04/03 10:26:01;;;;;;;17.70;10.83;;;;;;;;;;5119393;28;20316;-74
2021/04/03 10:28:29;;;;;;;14.97;10.43;;;;;;;;;;5119066;28;20727;-75
2021/04/03 10:30:56;;;;;;;21.07;10.37;;;;;;;;;;5119116;28;20291;-74
2021/04/03 10:33:23;;;;;;;16.50;10.40;;;;;;;;;;5119283;28;20232;-74
2021/04/03 10:35:51;;;;;;;22.80;10.97;;;;;;;;;;5118605;28;20248;-74
2021/04/03 10:38:19;;;;;;;16.90;10.43;;;;;;;;;;5119095;27;20244;-74
2021/04/03 10:40:46;;;;;;;15.97;9.93;;;;;;;;;;5119156;28;20201;-74
2021/04/03 10:43:14;;;;;;;15.67;10.73;;;;;;;;;;5119035;28;20205;-74
2021/04/03 10:45:41;;;;;;;15.40;10.13;;;;;;;;;;5118807;28;20247;-74
2021/04/03 10:48:08;;;;;;;15.07;9.77;;;;;;;;;;5119074;28;20204;-74
2021/04/03 10:50:36;;;;;;;15.83;9.97;;;;;;;;;;5118938;28;20354;-74
2021/04/03 10:53:04;;;;;;;13.83;10.03;;;;;;;;;;5118736;28;20607;-74
2021/04/03 10:55:31;;;;;;;15.07;9.83;;;;;;;;;;5118894;28;20246;-74
2021/04/03 10:57:59;;;;;;;15.20;10.47;;;;;;;;;;5105706;28;20201;-74
2021/04/03 11:00:26;;;;;;;16.73;9.50;;;;;;;;;;5118880;28;20201;-75
2021/04/03 11:02:53;;;;;;;17.63;8.93;;;;;;;;;;5118981;28;20215;-74
2021/04/03 11:05:21;;;;;;;14.70;9.87;;;;;;;;;;5118564;28;20307;-74
2021/04/03 11:07:48;;;;;;;18.23;10.83;;;;;;;;;;5118746;28;20232;-74
2021/04/03 11:10:16;;;;;;;15.67;9.67;;;;;;;;;;5118442;28;20287;-74
2021/04/03 11:12:43;;;;;;;16.90;10.07;;;;;;;;;;5118432;28;20236;-74
2021/04/03 11:15:10;;;;;;;14.83;8.80;;;;;;;;;;5118285;28;20308;-75
2021/04/03 11:17:38;;;;;;;17.33;9.53;;;;;;;;;;5118725;28;20200;-74
2021/04/03 11:20:06;;;;;;;12.37;8.47;;;;;;;;;;5134132;27;20235;-74
2021/04/03 11:22:33;;;;;;;15.23;9.53;;;;;;;;;;5138668;27;20263;-74
2021/04/03 11:25:00;;;;;;;16.23;11.77;;;;;;;;;;5138792;27;20255;-74
2021/04/03 11:27:29;;;;;;;14.20;9.43;;;;;;;;;;5138861;27;20267;-75
2021/04/03 11:29:56;;;;;;;13.57;9.00;;;;;;;;;;5139155;27;20241;-74
2021/04/03 11:32:23;;;;;;;19.40;9.53;;;;;;;;;;5129267;27;20269;-74
2021/04/03 11:34:50;;;;;;;18.07;8.97;;;;;;;;;;5114759;28;20235;-74
2021/04/03 11:37:17;;;;;;;11.37;8.17;;;;;;;;;;5117919;28;20204;-74
2021/04/03 11:39:45;;;;;;;20.57;9.30;;;;;;;;;;5118030;28;20205;-74
2021/04/03 11:42:12;;;;;;;12.90;8.50;;;;;;;;;;5118046;28;20249;-74
2021/04/03 11:44:40;;;;;;;19.30;8.70;;;;;;;;;;5118271;28;20259;-74
2021/04/03 11:47:07;;;;;;;13.03;8.23;;;;;;;;;;5118261;28;20228;-74
2021/04/03 11:49:34;;;;;;;26.63;8.63;;;;;;;;;;5117970;28;20312;-74
2021/04/03 11:52:02;;;;;;;22.00;8.80;;;;;;;;;;5117954;28;20243;-74
2021/04/03 11:54:30;;;;;;;14.93;8.40;;;;;;;;;;5117600;28;20248;-74
2021/04/03 11:56:57;;;;;;;12.60;8.07;;;;;;;;;;5118118;28;20269;-74
2021/04/03 11:59:24;;;;;;;13.17;9.03;;;;;;;;;;5117857;28;20643;-74
2021/04/03 12:01:52;;;;;;;12.83;8.30;;;;;;;;;;5117992;28;20723;-74
2021/04/03 12:04:19;;;;;;;11.70;7.93;;;;;;;;;;5117836;28;20304;-75
2021/04/03 12:06:46;;;;;;;13.93;8.33;;;;;;;;;;5117679;28;20296;-74
2021/04/03 12:09:13;;;;;;;17.10;11.80;;;;;;;;;;5119306;28;20232;-75
2021/04/03 12:11:40;;;;;;;12.27;8.17;;;;;;;;;;5121902;28;20646;-74
2021/04/03 12:14:07;;;;;;;10.13;7.63;;;;;;;;;;5122090;28;20280;-74
2021/04/03 12:16:34;;;;;;;13.20;8.50;;;;;;;;;;5122062;28;20618;-74
2021/04/03 12:19:02;;;;;;;16.43;9.17;;;;;;;;;;5121867;28;20680;-74
2021/04/03 12:21:29;;;;;;;13.67;7.63;;;;;;;;;;5121894;28;20291;-74
2021/04/03 12:23:56;;;;;;;15.10;9.37;;;;;;;;;;5121684;28;20660;-74
2021/04/03 12:26:23;;;;;;;15.63;8.70;;;;;;;;;;5121890;28;20204;-72
2021/04/03 12:28:50;;;;;;;13.73;7.17;;;;;;;;;;5122087;27;20247;-73
2021/04/03 12:31:18;;;;;;;11.00;7.23;;;;;;;;;;5121655;28;20652;-73
2021/04/03 12:33:45;;;;;;;10.33;7.93;;;;;;;;;;5121717;28;20293;-73
2021/04/03 12:36:13;;;;;;;14.70;9.10;;;;;;;;;;5121102;27;20286;-73
2021/04/03 12:38:40;;;;;;;13.77;8.60;;;;;;;;;;5121516;28;20696;-74
2021/04/03 12:41:07;;;;;;;13.37;9.00;;;;;;;;;;5121255;28;20289;-73
2021/04/03 12:43:35;;;;;;;14.77;7.00;;;;;;;;;;5121541;27;20212;-73
2021/04/03 12:46:02;;;;;;;14.07;7.83;;;;;;;;;;5121151;28;20248;-73
2021/04/03 12:48:29;;;;;;;15.37;7.17;;;;;;;;;;5121565;28;20208;-72
2021/04/03 12:50:57;;;;;;;15.83;8.03;;;;;;;;;;5120986;28;20614;-72
2021/04/03 12:53:26;;;;;;;13.23;7.50;;;;;;;;;;5114917;28;20205;-73
2021/04/03 12:55:53;;;;;;;14.80;8.17;;;;;;;;;;5108196;28;20315;-73
2021/04/03 12:58:21;;;;;;;23.00;7.60;;;;;;;;;;5107291;28;20276;-73
2021/04/03 13:00:47;;;;;;;10.70;7.60;;;;;;;;;;5107138;28;20221;-73
2021/04/03 13:03:15;;;;;;;9.83;7.00;;;;;;;;;;5107787;28;20207;-72
2021/04/03 13:05:42;;;;;;;13.70;6.97;;;;;;;;;;5104425;28;20249;-73
2021/04/03 13:08:09;;;;;;;17.70;8.43;;;;;;;;;;5107628;28;20566;-72
2021/04/03 13:10:38;;;;;;;10.13;7.10;;;;;;;;;;5107671;28;20236;-73
2021/04/03 13:13:08;;;;;;;11.37;6.73;;;;;;;;;;5106743;28;20198;-74
2021/04/03 13:15:35;;;;;;;10.57;7.43;;;;;;;;;;5107273;28;20336;-72
2021/04/03 13:18:02;;;;;;;13.50;6.80;;;;;;;;;;5107358;28;20648;-73
2021/04/03 13:20:30;;;;;;;10.27;7.30;;;;;;;;;;5106665;28;20201;-73
2021/04/03 13:23:01;;;;;;;11.50;6.90;;;;;;;;;;5105372;28;20278;-73
2021/04/03 13:25:28;;;;;;;11.03;6.23;;;;;;;;;;5106219;28;20296;-73
2021/04/03 13:27:56;;;;;;;8.97;6.03;;;;;;;;;;5107667;28;20304;-73
2021/04/03 13:30:23;;;;;;;13.03;7.70;;;;;;;;;;5106986;28;20269;-73
2021/04/03 13:32:50;;;;;;;17.67;8.17;;;;;;;;;;5107320;28;20196;-73
2021/04/03 13:35:17;;;;;;;10.30;6.27;;;;;;;;;;5110864;28;20666;-73
2021/04/03 13:37:44;;;;;;;9.17;6.40;;;;;;;;;;5107437;27;20661;-73
2021/04/03 13:40:12;;;;;;;9.57;6.03;;;;;;;;;;5105499;28;20728;-73
2021/04/03 13:42:39;;;;;;;11.97;6.83;;;;;;;;;;5107339;28;20197;-73
2021/04/03 13:45:08;;;;;;;13.77;6.17;;;;;;;;;;5105056;28;20293;-73
2021/04/03 13:47:36;;;;;;;11.53;6.10;;;;;;;;;;5107199;28;20713;-73
2021/04/03 13:50:03;;;;;;;16.13;5.97;;;;;;;;;;5105548;28;20210;-73
2021/04/03 13:52:30;;;;;;;11.23;5.63;;;;;;;;;;5107285;28;20280;-73
2021/04/03 13:54:57;;;;;;;8.73;5.93;;;;;;;;;;5107929;28;20228;-73
2021/04/03 13:57:26;;;;;;;8.30;5.40;;;;;;;;;;5109539;28;20229;-73
2021/04/03 13:59:53;;;;;;;11.30;5.83;;;;;;;;;;5107818;28;20204;-72
2021/04/03 14:02:21;;;;;;;7.43;4.93;;;;;;;;;;5107172;28;20201;-73
2021/04/03 14:04:49;;;;;;;7.13;5.07;;;;;;;;;;5107261;28;20295;-71
2021/04/03 14:07:16;;;;;;;11.27;6.13;;;;;;;;;;5108379;27;20200;-74
2021/04/03 14:09:43;;;;;;;9.30;5.07;;;;;;;;;;5137008;27;20275;-73
2021/04/03 14:12:11;;;;;;;10.90;4.70;;;;;;;;;;5138341;27;20208;-74
2021/04/03 14:14:38;;;;;;;10.23;5.90;;;;;;;;;;5139647;27;20782;-74
2021/04/03 14:17:05;;;;;;;9.93;5.70;;;;;;;;;;5140165;27;20287;-74
2021/04/03 14:19:41;;;;;;;6.03;4.50;;;;;;;;;;5140366;27;20204;-74
2021/04/03 14:22:08;;;;;;;10.17;5.53;;;;;;;;;;5139288;27;20288;-74
2021/04/03 14:24:35;;;;;;;11.10;5.27;;;;;;;;;;5139707;27;20646;-73
2021/04/03 14:27:03;;;;;;;5.53;4.30;;;;;;;;;;5139769;27;20228;-74
2021/04/03 14:29:30;;;;;;;7.70;4.87;;;;;;;;;;5139944;27;20303;-73
2021/04/03 14:31:57;;;;;;;8.57;4.53;;;;;;;;;;5137135;27;20283;-73
2021/04/03 14:34:24;;;;;;;6.23;4.27;;;;;;;;;;5112472;28;20264;-73
2021/04/03 14:36:52;;;;;;;6.00;4.50;;;;;;;;;;5118856;28;20291;-73